createdAt,value
2022-09-13T00:01:15.037Z,100.00
2022-09-13T00:03:43.167Z,100.00
2022-09-13T00:06:14.632Z,100.00
2022-09-13T00:08:42.937Z,100.00
2022-09-13T00:11:23.059Z,100.00
2022-09-13T00:13:51.694Z,100.00
2022-09-13T00:16:20.937Z,100.00
2022-09-13T00:18:49.413Z,100.00
2022-09-13T00:21:24.020Z,100.00
2022-09-13T00:23:53.489Z,100.00
2022-09-13T00:26:23.233Z,100.00
2022-09-13T00:28:52.706Z,100.00
2022-09-13T00:31:22.193Z,100.00
2022-09-13T00:33:50.202Z,100.00
2022-09-13T00:36:19.564Z,100.00
2022-09-13T00:38:47.808Z,100.00
2022-09-13T00:41:17.419Z,100.00
2022-09-13T00:43:48.556Z,100.00
2022-09-13T00:46:21.488Z,100.00
2022-09-13T00:48:51.908Z,100.00
2022-09-13T00:51:21.756Z,100.00
2022-09-13T00:53:51.886Z,100.00
2022-09-13T00:56:23.185Z,100.00
2022-09-13T00:58:54.381Z,100.00
2022-09-13T01:01:25.073Z,100.00
2022-09-13T01:03:53.078Z,100.00
2022-09-13T01:06:29.511Z,100.00
2022-09-13T01:08:59.110Z,100.00
2022-09-13T01:11:30.813Z,100.00
2022-09-13T01:13:58.935Z,100.00
2022-09-13T01:16:27.936Z,100.00
2022-09-13T01:18:56.015Z,100.00
2022-09-13T01:21:54.680Z,100.00
2022-09-13T01:24:51.161Z,100.00
2022-09-13T01:27:28.943Z,100.00
2022-09-13T01:30:22.287Z,100.00
2022-09-13T01:32:59.548Z,100.00
2022-09-13T01:35:36.052Z,100.00
2022-09-13T01:38:10.972Z,100.00
2022-09-13T01:40:49.893Z,100.00
2022-09-13T01:43:34.700Z,100.00
2022-09-13T01:46:07.537Z,100.00
2022-09-13T01:48:42.515Z,100.00
2022-09-13T01:51:14.363Z,100.00
2022-09-13T01:53:49.601Z,100.00
2022-09-13T01:56:22.269Z,100.00
2022-09-13T01:58:55.473Z,100.00
2022-09-13T02:01:27.650Z,100.00
2022-09-13T02:04:00.675Z,100.00
2022-09-13T02:06:31.919Z,100.00
2022-09-13T02:09:03.120Z,100.00
2022-09-13T02:11:32.699Z,100.00
2022-09-13T02:14:03.678Z,100.00
2022-09-13T02:16:37.611Z,100.00
2022-09-13T02:19:10.441Z,100.00
2022-09-13T02:21:40.168Z,100.00
2022-09-13T02:24:09.547Z,100.00
2022-09-13T02:26:39.509Z,100.00
2022-09-13T02:29:13.790Z,100.00
2022-09-13T02:31:47.551Z,100.00
2022-09-13T02:34:20.104Z,100.00
2022-09-13T02:36:49.797Z,100.00
2022-09-13T02:39:19.645Z,100.00
2022-09-13T02:41:52.470Z,100.00
2022-09-13T02:44:24.633Z,100.00
2022-09-13T02:47:06.282Z,100.00
2022-09-13T02:49:45.994Z,100.00
2022-09-13T02:52:22.547Z,100.00
2022-09-13T02:54:53.750Z,100.00
2022-09-13T02:57:24.893Z,100.00
2022-09-13T02:59:52.869Z,100.00
2022-09-13T03:02:24.503Z,100.00
2022-09-13T03:04:52.780Z,100.00
2022-09-13T03:07:21.003Z,100.00
2022-09-13T03:09:53.566Z,100.00
2022-09-13T03:12:43.871Z,100.00
2022-09-13T03:15:18.245Z,100.00
2022-09-13T03:17:56.124Z,100.00
2022-09-13T03:20:31.836Z,100.00
2022-09-13T03:23:11.844Z,100.00
2022-09-13T03:25:56.571Z,100.00
2022-09-13T03:28:32.842Z,100.00
2022-09-13T03:31:06.542Z,100.00
2022-09-13T03:33:42.204Z,100.00
2022-09-13T03:36:14.345Z,100.00
2022-09-13T03:38:47.133Z,100.00
2022-09-13T03:41:18.225Z,100.00
2022-09-13T03:43:50.560Z,100.00
2022-09-13T03:46:23.518Z,100.00
2022-09-13T03:48:53.194Z,100.00
2022-09-13T03:51:21.354Z,100.00
2022-09-13T03:53:54.460Z,100.00
2022-09-13T03:56:22.506Z,100.00
2022-09-13T03:58:51.190Z,100.00
2022-09-13T04:01:21.956Z,100.00
2022-09-13T04:03:53.316Z,100.00
2022-09-13T04:06:25.303Z,100.00
2022-09-13T04:08:53.340Z,100.00
2022-09-13T04:11:21.660Z,100.00
2022-09-13T04:13:49.854Z,100.00
2022-09-13T04:16:18.064Z,100.00
2022-09-13T04:18:46.136Z,100.00
2022-09-13T04:21:14.179Z,100.00
2022-09-13T04:23:43.755Z,100.00
2022-09-13T04:26:11.950Z,100.00
2022-09-13T04:28:39.918Z,100.00
2022-09-13T04:31:07.996Z,100.00
2022-09-13T04:33:36.394Z,100.00
2022-09-13T04:36:04.630Z,100.00
2022-09-13T04:38:32.730Z,100.00
2022-09-13T04:41:02.296Z,100.00
2022-09-13T04:43:30.759Z,100.00
2022-09-13T04:46:01.915Z,100.00
2022-09-13T04:48:29.984Z,100.00
2022-09-13T04:51:03.075Z,100.00
2022-09-13T04:53:31.159Z,100.00
2022-09-13T04:56:03.314Z,100.00
2022-09-13T04:58:31.607Z,100.00
2022-09-13T05:01:02.778Z,100.00
2022-09-13T05:03:31.423Z,100.00
2022-09-13T05:06:03.886Z,100.00
2022-09-13T05:08:32.017Z,100.00
2022-09-13T05:11:00.312Z,100.00
2022-09-13T05:13:29.797Z,100.00
2022-09-13T05:15:58.110Z,100.00
2022-09-13T05:18:27.426Z,100.00
2022-09-13T05:20:56.464Z,100.00
2022-09-13T05:23:25.415Z,100.00
2022-09-13T05:25:56.642Z,100.00
2022-09-13T05:28:25.331Z,100.00
2022-09-13T05:30:59.478Z,100.00
2022-09-13T05:33:28.205Z,100.00
2022-09-13T05:35:56.440Z,100.00
2022-09-13T05:38:24.767Z,100.00
2022-09-13T05:40:57.205Z,100.00
2022-09-13T05:43:26.586Z,100.00
2022-09-13T05:46:03.845Z,100.00
2022-09-13T05:48:32.106Z,100.00
2022-09-13T05:51:06.750Z,100.00
2022-09-13T05:53:35.329Z,100.00
2022-09-13T05:56:03.757Z,100.00
2022-09-13T05:58:31.759Z,100.00
2022-09-13T06:00:59.986Z,100.00
2022-09-13T06:03:29.393Z,100.00
2022-09-13T06:05:58.766Z,100.00
2022-09-13T06:08:27.732Z,100.00
2022-09-13T06:10:57.626Z,100.00
2022-09-13T06:13:26.192Z,100.00
2022-09-13T06:15:55.547Z,100.00
2022-09-13T06:18:24.710Z,100.00
2022-09-13T06:20:59.347Z,100.00
2022-09-13T06:23:27.648Z,100.00
2022-09-13T06:26:02.935Z,100.00
2022-09-13T06:28:34.297Z,100.00
2022-09-13T06:31:06.482Z,100.00
2022-09-13T06:33:35.005Z,100.00
2022-09-13T06:36:05.831Z,100.00
2022-09-13T06:38:33.865Z,100.00
2022-09-13T06:41:03.102Z,100.00
2022-09-13T06:43:31.214Z,100.00
2022-09-13T06:46:03.275Z,100.00
2022-09-13T06:48:34.639Z,100.00
2022-09-13T06:51:05.804Z,100.00
2022-09-13T06:53:34.936Z,100.00
2022-09-13T06:56:04.618Z,100.00
2022-09-13T06:58:33.112Z,100.00
2022-09-13T07:01:12.653Z,100.00
2022-09-13T07:03:42.214Z,100.00
2022-09-13T07:06:13.810Z,100.00
2022-09-13T07:08:42.585Z,100.00
2022-09-13T07:11:11.278Z,100.00
2022-09-13T07:13:39.727Z,100.00
2022-09-13T07:16:10.880Z,100.00
2022-09-13T07:18:39.523Z,100.00
2022-09-13T07:21:08.800Z,100.00
2022-09-13T07:23:39.903Z,100.00
2022-09-13T07:26:11.052Z,100.00
2022-09-13T07:28:41.582Z,100.00
2022-09-13T07:31:11.222Z,100.00
2022-09-13T07:33:39.768Z,100.00
2022-09-13T07:36:13.312Z,100.00
2022-09-13T07:38:45.342Z,100.00
2022-09-13T07:41:17.158Z,100.00
2022-09-13T07:43:45.797Z,100.00
2022-09-13T07:46:15.747Z,100.00
2022-09-13T07:48:45.144Z,100.00
2022-09-13T07:51:15.113Z,100.00
2022-09-13T07:53:45.986Z,100.00
2022-09-13T07:56:15.523Z,100.00
2022-09-13T07:58:45.571Z,100.00
2022-09-13T08:01:17.456Z,100.00
2022-09-13T08:03:46.011Z,100.00
2022-09-13T08:06:14.240Z,100.00
2022-09-13T08:08:42.267Z,100.00
2022-09-13T08:11:17.391Z,100.00
2022-09-13T08:13:45.637Z,100.00
2022-09-13T08:16:14.278Z,100.00
2022-09-13T08:18:45.527Z,100.00
2022-09-13T08:21:13.611Z,100.00
2022-09-13T08:23:42.212Z,100.00
2022-09-13T08:26:11.827Z,100.00
2022-09-13T08:28:41.080Z,100.00
2022-09-13T08:31:10.806Z,100.00
2022-09-13T08:33:44.224Z,100.00
2022-09-13T08:36:14.421Z,100.00
2022-09-13T08:38:46.795Z,100.00
2022-09-13T08:41:32.511Z,100.00
2022-09-13T08:44:04.717Z,100.00
2022-09-13T08:46:35.895Z,100.00
2022-09-13T08:49:10.171Z,100.00
2022-09-13T08:51:43.807Z,100.00
2022-09-13T08:54:13.035Z,100.00
2022-09-13T08:56:45.581Z,100.00
2022-09-13T08:59:46.435Z,100.00
2022-09-13T09:02:32.031Z,100.00
2022-09-13T09:05:05.526Z,100.00
2022-09-13T09:07:37.880Z,100.00
2022-09-13T09:10:08.600Z,100.00
2022-09-13T09:12:41.310Z,100.00
2022-09-13T09:15:16.509Z,100.00
2022-09-13T09:17:51.810Z,100.00
2022-09-13T09:20:27.962Z,100.00
2022-09-13T09:22:57.121Z,100.00
2022-09-13T09:25:26.789Z,100.00
2022-09-13T09:27:56.388Z,100.00
2022-09-13T09:30:24.323Z,100.00
2022-09-13T09:33:07.162Z,100.00
2022-09-13T09:35:46.245Z,100.00
2022-09-13T09:38:25.283Z,100.00
2022-09-13T09:40:53.581Z,100.00
2022-09-13T09:43:27.064Z,100.00
2022-09-13T09:45:56.206Z,100.00
2022-09-13T09:48:29.845Z,100.00
2022-09-13T09:51:00.326Z,100.00
2022-09-13T09:53:36.154Z,100.00
2022-09-13T09:56:08.426Z,100.00
2022-09-13T09:58:42.483Z,100.00
2022-09-13T10:01:19.399Z,100.00
2022-09-13T10:03:52.674Z,100.00
2022-09-13T10:06:21.886Z,100.00
2022-09-13T10:08:57.080Z,100.00
2022-09-13T10:11:27.482Z,100.00
2022-09-13T10:14:04.464Z,100.00
2022-09-13T10:16:33.053Z,100.00
2022-09-13T10:19:28.095Z,100.00
2022-09-13T10:22:06.933Z,100.00
2022-09-13T10:24:34.882Z,100.00
2022-09-13T10:27:04.164Z,100.00
2022-09-13T10:29:34.304Z,100.00
2022-09-13T10:32:09.785Z,100.00
2022-09-13T10:34:38.392Z,100.00
2022-09-13T10:37:13.954Z,100.00
2022-09-13T10:39:56.027Z,100.00
2022-09-13T10:42:26.376Z,100.00
2022-09-13T10:44:57.182Z,100.00
2022-09-13T10:47:27.915Z,100.00
2022-09-13T10:49:57.641Z,94.07
2022-09-13T10:52:32.345Z,97.21
2022-09-13T10:55:26.162Z,93.84
2022-09-13T10:57:55.300Z,91.05
2022-09-13T11:00:31.105Z,90.84
2022-09-13T11:03:13.235Z,99.08
2022-09-13T11:05:43.309Z,94.55
2022-09-13T11:08:20.166Z,90.92
2022-09-13T11:10:56.731Z,85.73
2022-09-13T11:13:33.075Z,78.57
2022-09-13T11:16:10.919Z,80.95
2022-09-13T11:18:55.486Z,89.40
2022-09-13T11:21:35.648Z,82.15
2022-09-13T11:24:18.167Z,86.73
2022-09-13T11:26:54.555Z,80.43
2022-09-13T11:29:41.279Z,77.59
2022-09-13T11:32:20.622Z,76.35
2022-09-13T11:34:57.720Z,81.30
2022-09-13T11:37:42.482Z,84.31
2022-09-13T11:40:27.272Z,80.03
2022-09-13T11:43:02.294Z,81.99
2022-09-13T11:45:32.486Z,75.91
2022-09-13T11:48:24.586Z,82.75
2022-09-13T11:50:59.408Z,85.37
2022-09-13T11:53:50.383Z,84.88
2022-09-13T11:56:23.022Z,79.45
2022-09-13T11:58:53.706Z,83.33
2022-09-13T12:01:28.608Z,83.41
2022-09-13T12:04:02.148Z,81.45
2022-09-13T12:06:33.028Z,83.95
2022-09-13T12:09:04.225Z,86.76
2022-09-13T12:11:35.186Z,88.28
2022-09-13T12:14:06.583Z,88.95
2022-09-13T12:16:36.999Z,90.13
2022-09-13T12:19:09.096Z,87.15
2022-09-13T12:21:39.535Z,86.73
2022-09-13T12:24:21.578Z,89.10
2022-09-13T12:26:54.429Z,84.96
2022-09-13T12:29:26.789Z,84.36
2022-09-13T12:31:57.692Z,84.70
2022-09-13T12:34:32.450Z,80.00
2022-09-13T12:37:16.158Z,84.18
2022-09-13T12:40:06.546Z,81.64
2022-09-13T12:42:57.495Z,76.71
2022-09-13T12:45:43.966Z,82.04
2022-09-13T12:48:31.114Z,87.95
2022-09-13T12:51:07.689Z,83.87
2022-09-13T12:54:05.667Z,80.58
2022-09-13T12:56:47.673Z,80.95
2022-09-13T12:59:35.845Z,80.78
2022-09-13T13:02:05.047Z,76.46
2022-09-13T13:04:35.300Z,76.89
2022-09-13T13:07:07.252Z,83.08
2022-09-13T13:09:41.088Z,73.58
2022-09-13T13:12:09.460Z,75.64
2022-09-13T13:14:53.729Z,68.33
2022-09-13T13:17:39.535Z,73.59
2022-09-13T13:20:42.122Z,71.24
2022-09-13T13:23:20.959Z,76.52
2022-09-13T13:26:07.954Z,79.03
2022-09-13T13:29:14.253Z,74.22
2022-09-13T13:32:04.505Z,75.82
2022-09-13T13:34:37.699Z,79.36
2022-09-13T13:37:08.818Z,75.96
2022-09-13T13:39:40.352Z,72.92
2022-09-13T13:42:31.784Z,71.00
2022-09-13T13:45:21.580Z,75.16
2022-09-13T13:48:10.526Z,76.65
2022-09-13T13:51:15.731Z,70.79
2022-09-13T13:53:46.621Z,73.63
2022-09-13T13:56:21.763Z,74.68
2022-09-13T13:58:54.497Z,72.25
2022-09-13T14:01:27.181Z,72.20
2022-09-13T14:04:12.776Z,74.99
2022-09-13T14:06:49.836Z,72.89
2022-09-13T14:09:33.360Z,72.14
2022-09-13T14:12:17.016Z,70.43
2022-09-13T14:14:59.996Z,74.36
2022-09-13T14:18:14.280Z,69.07
2022-09-13T14:21:03.855Z,71.52
2022-09-13T14:23:35.366Z,75.53
2022-09-13T14:26:03.796Z,74.91
2022-09-13T14:28:33.646Z,79.03
2022-09-13T14:31:01.699Z,76.17
2022-09-13T14:33:37.567Z,73.50
2022-09-13T14:36:18.448Z,73.12
2022-09-13T14:38:54.974Z,75.33
2022-09-13T14:41:37.588Z,72.72
2022-09-13T14:44:28.425Z,73.95
2022-09-13T14:47:02.531Z,76.27
2022-09-13T14:49:35.786Z,72.47
2022-09-13T14:52:09.046Z,75.58
2022-09-13T14:54:39.843Z,72.10
2022-09-13T14:57:09.686Z,71.14
2022-09-13T14:59:52.046Z,75.25
2022-09-13T15:02:21.809Z,84.04
2022-09-13T15:04:53.656Z,83.21
2022-09-13T15:07:25.331Z,76.14
2022-09-13T15:10:00.765Z,77.81
2022-09-13T15:12:31.556Z,76.76
2022-09-13T15:15:28.514Z,79.34
2022-09-13T15:17:57.966Z,76.54
2022-09-13T15:20:30.413Z,79.32
2022-09-13T15:23:03.809Z,81.56
2022-09-13T15:25:34.997Z,82.84
2022-09-13T15:28:03.416Z,76.27
2022-09-13T15:30:38.926Z,82.50
2022-09-13T15:33:16.070Z,83.12
2022-09-13T15:35:45.587Z,84.51
2022-09-13T15:38:20.126Z,83.92
2022-09-13T15:40:54.521Z,86.00
2022-09-13T15:43:28.186Z,90.28
2022-09-13T15:46:02.421Z,86.38
2022-09-13T15:48:36.959Z,89.43
2022-09-13T15:51:14.569Z,89.50
2022-09-13T15:53:46.578Z,89.46
2022-09-13T15:56:19.639Z,85.54
2022-09-13T15:58:53.725Z,88.17
2022-09-13T16:01:23.386Z,87.75
2022-09-13T16:03:51.857Z,87.96
2022-09-13T16:06:24.435Z,89.57
2022-09-13T16:08:52.843Z,86.92
2022-09-13T16:11:20.875Z,83.90
2022-09-13T16:13:49.027Z,83.22
2022-09-13T16:16:27.791Z,83.47
2022-09-13T16:18:58.678Z,79.65
2022-09-13T16:21:26.780Z,79.30
2022-09-13T16:23:56.461Z,81.13
2022-09-13T16:26:24.557Z,82.52
2022-09-13T16:28:53.837Z,84.18
2022-09-13T16:31:23.455Z,84.61
2022-09-13T16:33:51.486Z,85.13
2022-09-13T16:36:20.775Z,86.77
2022-09-13T16:38:48.928Z,85.62
2022-09-13T16:41:17.210Z,87.45
2022-09-13T16:43:46.872Z,91.16
2022-09-13T16:46:15.367Z,90.46
2022-09-13T16:48:45.227Z,92.81
2022-09-13T16:51:17.478Z,93.72
2022-09-13T16:53:50.101Z,95.16
2022-09-13T16:56:21.547Z,95.90
2022-09-13T16:58:52.636Z,98.51
2022-09-13T17:01:22.666Z,97.37
2022-09-13T17:03:54.767Z,97.11
2022-09-13T17:06:24.489Z,98.90
2022-09-13T17:08:55.428Z,98.65
2022-09-13T17:11:25.700Z,98.18
2022-09-13T17:13:54.075Z,100.00
2022-09-13T17:16:25.698Z,100.00
2022-09-13T17:18:55.677Z,100.00
2022-09-13T17:21:23.683Z,100.00
2022-09-13T17:23:51.746Z,100.00
2022-09-13T17:26:20.043Z,100.00
2022-09-13T17:28:48.648Z,100.00
2022-09-13T17:31:16.978Z,100.00
2022-09-13T17:33:45.160Z,100.00
2022-09-13T17:36:15.313Z,100.00
2022-09-13T17:38:43.933Z,100.00
2022-09-13T17:41:21.352Z,100.00
2022-09-13T17:44:01.080Z,100.00
2022-09-13T17:46:30.272Z,100.00
2022-09-13T17:49:00.331Z,100.00
2022-09-13T17:51:31.634Z,100.00
2022-09-13T17:54:01.379Z,100.00
2022-09-13T17:56:30.970Z,100.00
2022-09-13T17:59:12.680Z,100.00
2022-09-13T18:02:07.319Z,100.00
2022-09-13T18:04:35.765Z,100.00
2022-09-13T18:07:08.388Z,100.00
2022-09-13T18:09:41.606Z,100.00
2022-09-13T18:12:09.888Z,100.00
2022-09-13T18:14:41.300Z,100.00
2022-09-13T18:17:16.227Z,100.00
2022-09-13T18:19:58.105Z,100.00
2022-09-13T18:22:27.596Z,100.00
2022-09-13T18:25:04.774Z,100.00
2022-09-13T18:27:32.962Z,100.00
2022-09-13T18:30:21.523Z,100.00
2022-09-13T18:32:49.599Z,100.00
2022-09-13T18:35:22.226Z,100.00
2022-09-13T18:37:56.844Z,100.00
2022-09-13T18:40:24.901Z,100.00
2022-09-13T18:42:59.974Z,100.00
2022-09-13T18:45:27.975Z,100.00
2022-09-13T18:47:55.900Z,100.00
2022-09-13T18:50:24.530Z,100.00
2022-09-13T18:52:54.157Z,100.00
2022-09-13T18:55:22.124Z,100.00
2022-09-13T18:57:54.203Z,100.00
2022-09-13T19:00:47.065Z,100.00
2022-09-13T19:03:15.270Z,100.00
2022-09-13T19:05:43.948Z,100.00
2022-09-13T19:08:21.629Z,100.00
2022-09-13T19:10:49.571Z,100.00
2022-09-13T19:13:22.488Z,100.00
2022-09-13T19:15:52.190Z,100.00
2022-09-13T19:18:20.170Z,100.00
2022-09-13T19:20:48.399Z,100.00
2022-09-13T19:23:17.981Z,100.00
2022-09-13T19:25:46.719Z,100.00
2022-09-13T19:28:17.663Z,100.00
2022-09-13T19:30:50.141Z,100.00
2022-09-13T19:33:22.493Z,100.00
2022-09-13T19:35:50.552Z,100.00
2022-09-13T19:38:28.129Z,100.00
2022-09-13T19:41:07.685Z,100.00
2022-09-13T19:43:37.916Z,100.00
2022-09-13T19:46:10.495Z,100.00
2022-09-13T19:48:52.279Z,100.00
2022-09-13T19:51:27.997Z,100.00
2022-09-13T19:54:06.885Z,100.00
2022-09-13T19:56:38.168Z,100.00
2022-09-13T19:59:07.607Z,100.00
2022-09-13T20:01:43.882Z,100.00
2022-09-13T20:04:17.565Z,100.00
2022-09-13T20:06:49.415Z,100.00
2022-09-13T20:09:20.194Z,100.00
2022-09-13T20:11:49.047Z,100.00
2022-09-13T20:14:20.369Z,100.00
2022-09-13T20:16:48.627Z,100.00
2022-09-13T20:19:47.874Z,100.00
2022-09-13T20:22:21.995Z,100.00
2022-09-13T20:24:51.896Z,100.00
2022-09-13T20:27:20.194Z,100.00
2022-09-13T20:29:49.551Z,100.00
2022-09-13T20:32:17.495Z,100.00
2022-09-13T20:34:45.943Z,100.00
2022-09-13T20:37:13.894Z,100.00
2022-09-13T20:39:42.123Z,100.00
2022-09-13T20:42:17.968Z,100.00
2022-09-13T20:44:46.100Z,100.00
2022-09-13T20:47:18.867Z,100.00
2022-09-13T20:49:47.127Z,100.00
2022-09-13T20:52:15.180Z,100.00
2022-09-13T20:54:43.313Z,100.00
2022-09-13T20:57:12.755Z,100.00
2022-09-13T20:59:40.687Z,100.00
2022-09-13T21:02:13.561Z,100.00
2022-09-13T21:04:41.706Z,100.00
2022-09-13T21:07:27.124Z,100.00
2022-09-13T21:09:59.833Z,100.00
2022-09-13T21:12:31.820Z,100.00
2022-09-13T21:15:02.584Z,100.00
2022-09-13T21:17:33.423Z,100.00
2022-09-13T21:20:06.233Z,100.00
2022-09-13T21:22:36.132Z,100.00
2022-09-13T21:25:04.339Z,100.00
2022-09-13T21:27:34.115Z,100.00
2022-09-13T21:30:02.222Z,100.00
2022-09-13T21:32:30.330Z,100.00
2022-09-13T21:35:00.790Z,100.00
2022-09-13T21:37:28.770Z,100.00
2022-09-13T21:40:00.690Z,100.00
2022-09-13T21:42:28.872Z,100.00
2022-09-13T21:44:58.419Z,100.00
2022-09-13T21:47:26.447Z,100.00
2022-09-13T21:49:59.721Z,100.00
2022-09-13T21:52:30.835Z,100.00
2022-09-13T21:55:04.153Z,100.00
2022-09-13T21:57:35.239Z,100.00
2022-09-13T22:00:13.989Z,100.00
2022-09-13T22:02:45.433Z,100.00
2022-09-13T22:05:26.776Z,100.00
2022-09-13T22:07:57.858Z,100.00
2022-09-13T22:10:42.530Z,100.00
2022-09-13T22:13:13.734Z,100.00
2022-09-13T22:15:46.483Z,100.00
2022-09-13T22:18:31.067Z,100.00
2022-09-13T22:21:07.642Z,100.00
2022-09-13T22:23:55.584Z,100.00
2022-09-13T22:26:25.464Z,100.00
2022-09-13T22:28:54.270Z,100.00
2022-09-13T22:31:26.059Z,100.00
2022-09-13T22:33:56.867Z,100.00
2022-09-13T22:36:34.929Z,100.00
2022-09-13T22:39:08.640Z,100.00
2022-09-13T22:41:36.587Z,100.00
2022-09-13T22:44:15.779Z,100.00
2022-09-13T22:46:59.722Z,100.00
2022-09-13T22:49:35.374Z,100.00
2022-09-13T22:52:03.831Z,100.00
2022-09-13T22:54:34.995Z,100.00
2022-09-13T22:57:05.640Z,100.00
2022-09-13T22:59:41.534Z,100.00
2022-09-13T23:02:13.389Z,100.00
2022-09-13T23:04:44.131Z,100.00
2022-09-13T23:07:23.241Z,100.00
2022-09-13T23:09:54.189Z,100.00
2022-09-13T23:12:30.523Z,100.00
2022-09-13T23:15:17.010Z,100.00
2022-09-13T23:17:53.294Z,100.00
2022-09-13T23:20:27.755Z,100.00
2022-09-13T23:22:59.729Z,100.00
2022-09-13T23:25:30.803Z,100.00
2022-09-13T23:28:09.063Z,100.00
2022-09-13T23:30:37.061Z,100.00
2022-09-13T23:33:19.634Z,100.00
2022-09-13T23:35:48.634Z,100.00
2022-09-13T23:38:25.461Z,100.00
2022-09-13T23:40:55.648Z,100.00
2022-09-13T23:43:29.052Z,100.00
2022-09-13T23:46:02.396Z,100.00
2022-09-13T23:48:35.220Z,100.00
2022-09-13T23:51:25.090Z,100.00
2022-09-13T23:53:56.745Z,100.00
2022-09-13T23:56:25.818Z,100.00
2022-09-13T23:58:58.861Z,100.00
